aviador You're here:

UTAK Decoded Metar

KRASNOVODSK in RUSSIA
Report Time2017-12-11 05:00:00
UTC Time2017-12-11 05:29:32
Flight Rules vfr VFR
Wind120° at 10 kt
W.Decomp.*RWY 16: 7.1 kt HW 7.1 kt LCW
W.Rank120° ranks 21
Current wind is above 120° avg. (7.8)
Visibility9999 m
Phenomena:N/A
Clouds:N/A
Expected CloudBase > 1,200 ft AGL from Temp-Dew spread
CeilingNone
Temp02°C (ISA -12)
Dew Point-1°C (81% RH)
AAT-3.7°C
QNH1022 hPa
Density Alt-1,463 ft
Elevation279 ft
Report Wrong Elevation
Raw Report
METAR UTAK 110500Z 12010KT CAVOK 02/M01 Q1022 R16R/CLRD70 NOSIG=

Extra information for UTAK:More info

Metar Taf Metar & Taf Last 4 Metars F.Rules Stats Wind Profile Meteogram Temp Stats Airport Information Weather charts Add Link Nearby VenuesMetar ALERT Operation Metar Decoded Social comments